createdAt,value
2022-08-23T00:00:13.509Z,24.10
2022-08-23T00:02:40.540Z,24.10
2022-08-23T00:05:10.080Z,24.00
2022-08-23T00:07:39.343Z,24.00
2022-08-23T00:10:11.831Z,23.90
2022-08-23T00:12:39.291Z,23.90
2022-08-23T00:15:07.597Z,23.80
2022-08-23T00:17:35.686Z,23.80
2022-08-23T00:20:13.667Z,23.70
2022-08-23T00:22:41.217Z,23.70
2022-08-23T00:25:10.144Z,23.70
2022-08-23T00:27:37.373Z,23.70
2022-08-23T00:30:07.184Z,23.60
2022-08-23T00:32:36.292Z,23.60
2022-08-23T00:35:03.835Z,23.60
2022-08-23T00:37:32.458Z,23.50
2022-08-23T00:40:00.099Z,23.50
2022-08-23T00:43:02.749Z,23.40
2022-08-23T00:46:10.937Z,23.40
2022-08-23T00:48:38.645Z,23.40
2022-08-23T00:51:16.139Z,23.30
2022-08-23T00:53:46.932Z,23.30
2022-08-23T00:56:16.535Z,23.30
2022-08-23T00:58:43.394Z,23.20
2022-08-23T01:01:10.113Z,23.20
2022-08-23T01:03:42.983Z,23.10
2022-08-23T01:06:39.085Z,23.10
2022-08-23T01:09:09.731Z,23.10
2022-08-23T01:11:43.832Z,23.00
2022-08-23T01:14:30.338Z,23.00
2022-08-23T01:16:59.718Z,23.00
2022-08-23T01:19:33.204Z,22.90
2022-08-23T01:22:11.440Z,22.90
2022-08-23T01:24:59.844Z,22.90
2022-08-23T01:27:25.644Z,22.80
2022-08-23T01:29:52.396Z,22.80
2022-08-23T01:32:21.090Z,22.80
2022-08-23T01:34:51.745Z,22.70
2022-08-23T01:37:20.604Z,22.70
2022-08-23T01:39:47.566Z,22.70
2022-08-23T01:42:14.273Z,22.60
2022-08-23T01:44:40.953Z,22.70
2022-08-23T01:47:07.826Z,22.60
2022-08-23T01:49:35.107Z,22.60
2022-08-23T01:52:01.873Z,22.50
2022-08-23T01:54:29.315Z,22.40
2022-08-23T01:56:56.575Z,22.40
2022-08-23T01:59:24.175Z,22.40
2022-08-23T02:01:51.300Z,22.40
2022-08-23T02:04:19.877Z,22.40
2022-08-23T02:06:46.604Z,22.30
2022-08-23T02:09:17.218Z,22.30
2022-08-23T02:11:47.171Z,22.30
2022-08-23T02:14:18.551Z,22.30
2022-08-23T02:16:58.135Z,22.20
2022-08-23T02:19:34.400Z,22.20
2022-08-23T02:22:01.245Z,22.10
2022-08-23T02:24:28.117Z,22.10
2022-08-23T02:26:58.161Z,22.10
2022-08-23T02:29:26.602Z,22.00
2022-08-23T02:31:54.101Z,22.00
2022-08-23T02:37:09.288Z,22.00
2022-08-23T02:39:36.560Z,21.90
2022-08-23T02:42:07.079Z,21.90
2022-08-23T02:44:34.789Z,21.80
2022-08-23T02:47:02.287Z,21.80
2022-08-23T02:49:29.796Z,21.80
2022-08-23T02:51:57.208Z,21.80
2022-08-23T02:54:24.149Z,21.70
2022-08-23T02:56:52.795Z,21.70
2022-08-23T02:59:19.656Z,21.70
2022-08-23T03:01:46.469Z,21.60
2022-08-23T03:04:13.316Z,21.70
2022-08-23T03:06:40.123Z,21.60
2022-08-23T03:09:07.536Z,21.60
2022-08-23T03:11:36.452Z,21.50
2022-08-23T03:14:03.488Z,21.50
2022-08-23T03:16:30.348Z,21.50
2022-08-23T03:18:57.077Z,21.50
2022-08-23T03:21:23.815Z,21.50
2022-08-23T03:23:51.795Z,21.40
2022-08-23T03:26:18.945Z,21.40
2022-08-23T03:28:47.203Z,21.30
2022-08-23T03:31:15.297Z,21.30
2022-08-23T03:33:42.405Z,21.30
2022-08-23T03:36:10.696Z,21.30
2022-08-23T03:38:39.384Z,21.30
2022-08-23T03:41:07.617Z,21.20
2022-08-23T03:43:34.729Z,21.20
2022-08-23T03:46:01.413Z,21.20
2022-08-23T03:48:28.197Z,21.10
2022-08-23T03:50:54.969Z,21.10
2022-08-23T03:53:23.709Z,21.10
2022-08-23T03:55:52.517Z,21.00
2022-08-23T03:58:20.552Z,21.00
2022-08-23T04:00:47.383Z,21.00
2022-08-23T04:03:14.103Z,20.90
2022-08-23T04:05:40.787Z,20.90
2022-08-23T04:08:11.405Z,20.90
2022-08-23T04:10:39.045Z,20.90
2022-08-23T04:13:07.395Z,20.80
2022-08-23T04:15:34.770Z,20.80
2022-08-23T04:18:01.788Z,20.80
2022-08-23T04:20:29.029Z,20.80
2022-08-23T04:22:56.525Z,20.70
2022-08-23T04:25:33.022Z,20.70
2022-08-23T04:28:02.352Z,20.70
2022-08-23T04:30:29.743Z,20.70
2022-08-23T04:32:56.468Z,20.70
2022-08-23T04:35:23.719Z,20.70
2022-08-23T04:37:50.646Z,20.60
2022-08-23T04:40:35.966Z,20.60
2022-08-23T04:43:02.808Z,20.60
2022-08-23T04:45:29.654Z,20.60
2022-08-23T04:47:56.585Z,20.50
2022-08-23T04:50:23.530Z,20.50
2022-08-23T04:52:50.217Z,20.40
2022-08-23T04:55:17.286Z,20.50
2022-08-23T04:57:44.760Z,20.50
2022-08-23T05:00:14.949Z,20.40
2022-08-23T05:02:46.616Z,20.40
2022-08-23T05:05:13.395Z,20.40
2022-08-23T05:07:40.284Z,20.40
2022-08-23T05:10:12.679Z,20.40
2022-08-23T05:12:40.280Z,20.30
2022-08-23T05:15:09.443Z,20.30
2022-08-23T05:17:36.924Z,20.30
2022-08-23T05:20:05.614Z,20.30
2022-08-23T05:22:39.827Z,20.30
2022-08-23T05:25:07.019Z,20.20
2022-08-23T05:27:33.911Z,20.20
2022-08-23T05:30:00.590Z,20.20
2022-08-23T05:32:30.399Z,20.10
2022-08-23T05:35:00.236Z,20.20
2022-08-23T05:37:26.979Z,20.20
2022-08-23T05:39:53.701Z,20.10
2022-08-23T05:42:20.403Z,20.10
2022-08-23T05:44:47.072Z,19.60
2022-08-23T05:47:15.826Z,20.10
2022-08-23T05:49:42.861Z,20.10
2022-08-23T05:52:12.852Z,20.10
2022-08-23T05:54:39.883Z,20.10
2022-08-23T05:57:06.613Z,20.10
2022-08-23T05:59:33.284Z,20.10
2022-08-23T06:02:00.246Z,20.10
2022-08-23T06:04:26.924Z,20.10
2022-08-23T06:06:56.261Z,20.10
2022-08-23T06:09:23.362Z,20.10
2022-08-23T06:11:50.210Z,20.10
2022-08-23T06:14:17.081Z,20.10
2022-08-23T06:16:47.510Z,20.10
2022-08-23T06:19:15.049Z,20.00
2022-08-23T06:21:42.395Z,20.00
2022-08-23T06:24:09.869Z,20.00
2022-08-23T06:26:43.029Z,20.00
2022-08-23T06:29:13.286Z,20.10
2022-08-23T06:31:45.334Z,20.10
2022-08-23T06:34:24.698Z,20.10
2022-08-23T06:36:53.951Z,20.10
2022-08-23T06:39:22.372Z,20.20
2022-08-23T06:41:49.850Z,20.20
2022-08-23T06:44:18.416Z,20.30
2022-08-23T06:46:46.652Z,20.30
2022-08-23T06:49:13.806Z,20.40
2022-08-23T06:51:43.703Z,20.40
2022-08-23T06:54:13.137Z,20.50
2022-08-23T06:56:41.402Z,20.60
2022-08-23T06:59:09.184Z,20.60
2022-08-23T07:01:55.511Z,20.70
2022-08-23T07:04:28.906Z,20.90
2022-08-23T07:06:56.659Z,20.80
2022-08-23T07:09:23.599Z,20.90
2022-08-23T07:11:50.276Z,21.00
2022-08-23T07:14:19.005Z,21.10
2022-08-23T07:16:48.563Z,21.20
2022-08-23T07:19:16.704Z,21.30
2022-08-23T07:21:43.902Z,21.40
2022-08-23T07:24:13.573Z,21.50
2022-08-23T07:26:41.755Z,21.60
2022-08-23T07:29:09.697Z,21.70
2022-08-23T07:31:40.845Z,21.80
2022-08-23T07:34:08.722Z,22.00
2022-08-23T07:36:36.044Z,22.10
2022-08-23T07:39:05.987Z,22.20
2022-08-23T07:41:33.630Z,22.30
2022-08-23T07:44:02.748Z,22.50
2022-08-23T07:46:31.326Z,22.60
2022-08-23T07:48:59.569Z,22.80
2022-08-23T07:51:27.137Z,22.90
2022-08-23T07:53:53.840Z,23.00
2022-08-23T07:56:21.542Z,23.10
2022-08-23T07:58:48.343Z,23.30
2022-08-23T08:01:16.446Z,23.40
2022-08-23T08:03:44.738Z,23.50
2022-08-23T08:06:14.627Z,23.60
2022-08-23T08:08:41.967Z,23.70
2022-08-23T08:11:10.903Z,23.80
2022-08-23T08:13:39.376Z,24.00
2022-08-23T08:16:06.636Z,24.00
2022-08-23T08:18:33.470Z,24.20
2022-08-23T08:21:01.117Z,24.30
2022-08-23T08:23:29.347Z,24.40
2022-08-23T08:26:08.083Z,24.60
2022-08-23T08:28:35.696Z,24.70
2022-08-23T08:31:02.825Z,24.80
2022-08-23T08:33:30.894Z,24.90
2022-08-23T08:36:00.040Z,25.10
2022-08-23T08:38:28.925Z,25.20
2022-08-23T08:41:06.266Z,25.20
2022-08-23T08:43:51.707Z,25.40
2022-08-23T08:46:42.200Z,25.50
2022-08-23T08:49:14.759Z,25.70
2022-08-23T08:51:57.761Z,25.80
2022-08-23T08:54:26.369Z,25.90
2022-08-23T08:56:55.947Z,26.10
2022-08-23T08:59:25.592Z,26.20
2022-08-23T09:01:53.042Z,26.20
2022-08-23T09:04:21.086Z,26.40
2022-08-23T09:07:15.191Z,26.50
2022-08-23T09:10:01.098Z,26.60
2022-08-23T09:13:08.920Z,26.80
2022-08-23T09:15:53.150Z,26.90
2022-08-23T09:18:19.891Z,27.00
2022-08-23T09:20:52.040Z,27.10
2022-08-23T09:23:34.424Z,27.30
2022-08-23T09:26:04.596Z,27.40
2022-08-23T09:28:35.572Z,27.40
2022-08-23T09:31:02.620Z,27.50
2022-08-23T09:33:45.871Z,27.60
2022-08-23T09:36:25.332Z,27.70
2022-08-23T09:39:01.386Z,27.80
2022-08-23T09:41:33.713Z,27.90
2022-08-23T09:44:03.404Z,28.00
2022-08-23T09:46:41.855Z,28.10
2022-08-23T09:49:27.057Z,28.20
2022-08-23T09:51:56.579Z,28.40
2022-08-23T09:54:31.400Z,28.50
2022-08-23T09:57:01.784Z,28.60
2022-08-23T09:59:28.462Z,28.70
2022-08-23T10:01:57.572Z,28.80
2022-08-23T10:04:41.447Z,28.80
2022-08-23T10:07:34.648Z,29.00
2022-08-23T10:10:23.595Z,29.10
2022-08-23T10:12:51.729Z,29.10
2022-08-23T10:15:18.659Z,29.20
2022-08-23T10:18:07.275Z,29.30
2022-08-23T10:20:45.554Z,29.40
2022-08-23T10:23:40.773Z,29.50
2022-08-23T10:26:08.352Z,29.60
2022-08-23T10:29:09.119Z,29.60
2022-08-23T10:31:48.096Z,29.70
2022-08-23T10:34:47.097Z,29.80
2022-08-23T10:37:39.547Z,29.90
2022-08-23T10:40:19.316Z,30.00
2022-08-23T10:42:56.857Z,30.00
2022-08-23T10:45:31.874Z,30.10
2022-08-23T10:48:01.586Z,30.20
2022-08-23T10:50:55.706Z,30.20
2022-08-23T10:53:38.144Z,30.30
2022-08-23T10:56:13.351Z,30.40
2022-08-23T10:58:49.906Z,30.50
2022-08-23T11:01:41.209Z,30.50
2022-08-23T11:04:14.948Z,30.60
2022-08-23T11:06:46.567Z,30.70
2022-08-23T11:09:19.225Z,30.80
2022-08-23T11:12:12.982Z,30.80
2022-08-23T11:14:45.456Z,30.80
2022-08-23T11:17:27.204Z,30.80
2022-08-23T11:19:57.214Z,30.90
2022-08-23T11:22:29.508Z,31.00
2022-08-23T11:25:16.150Z,31.10
2022-08-23T11:27:44.155Z,31.20
2022-08-23T11:30:32.648Z,31.20
2022-08-23T11:33:15.276Z,31.30
2022-08-23T11:35:49.366Z,31.30
2022-08-23T11:38:36.796Z,31.40
2022-08-23T11:41:19.359Z,31.50
2022-08-23T11:44:07.075Z,31.50
2022-08-23T11:46:35.085Z,31.60
2022-08-23T11:49:13.633Z,31.70
2022-08-23T11:52:18.368Z,31.80
2022-08-23T11:55:03.424Z,31.90
2022-08-23T11:57:58.181Z,31.90
2022-08-23T12:00:33.561Z,31.90
2022-08-23T12:03:22.360Z,32.00
2022-08-23T12:05:52.270Z,32.10
2022-08-23T12:08:26.632Z,32.20
2022-08-23T12:10:53.286Z,32.30
2022-08-23T12:13:20.141Z,32.30
2022-08-23T12:16:17.004Z,32.40
2022-08-23T12:18:47.654Z,32.50
2022-08-23T12:21:39.435Z,32.50
2022-08-23T12:24:17.515Z,32.70
2022-08-23T12:26:45.438Z,32.70
2022-08-23T12:29:39.577Z,32.80
2022-08-23T12:32:16.656Z,32.80
2022-08-23T12:35:07.971Z,32.90
2022-08-23T12:37:47.363Z,33.00
2022-08-23T12:40:21.147Z,33.10
2022-08-23T12:42:48.065Z,33.10
2022-08-23T12:45:16.487Z,33.20
2022-08-23T12:47:45.848Z,33.30
2022-08-23T12:50:15.491Z,33.30
2022-08-23T12:52:42.740Z,33.40
2022-08-23T12:55:15.685Z,33.50
2022-08-23T12:57:44.515Z,33.60
2022-08-23T13:00:17.683Z,33.70
2022-08-23T13:02:58.987Z,33.70
2022-08-23T13:05:34.741Z,33.80
2022-08-23T13:08:03.552Z,33.90
2022-08-23T13:10:30.736Z,34.00
2022-08-23T13:12:57.611Z,34.10
2022-08-23T13:15:50.249Z,34.10
2022-08-23T13:18:42.036Z,34.20
2022-08-23T13:21:23.764Z,34.40
2022-08-23T13:24:00.834Z,34.50
2022-08-23T13:26:39.422Z,34.50
2022-08-23T13:29:15.303Z,34.60
2022-08-23T13:32:05.872Z,34.70
2022-08-23T13:34:48.720Z,34.80
2022-08-23T13:37:18.933Z,34.90
2022-08-23T13:40:00.558Z,35.00
2022-08-23T13:42:31.627Z,35.10
2022-08-23T13:44:58.646Z,35.20
2022-08-23T13:47:28.696Z,35.20
2022-08-23T13:49:56.619Z,35.30
2022-08-23T13:55:12.254Z,35.50
2022-08-23T13:57:40.226Z,35.60
2022-08-23T14:00:13.474Z,35.60
2022-08-23T14:02:42.288Z,35.70
2022-08-23T14:05:10.015Z,35.80
2022-08-23T14:07:36.949Z,35.90
2022-08-23T14:10:04.699Z,35.90
2022-08-23T14:12:33.538Z,36.00
2022-08-23T14:15:03.244Z,36.10
2022-08-23T14:17:34.208Z,36.20
2022-08-23T14:22:48.996Z,36.40
2022-08-23T14:25:16.138Z,36.50
2022-08-23T14:27:45.275Z,36.50
2022-08-23T14:30:22.698Z,36.60
2022-08-23T14:32:49.460Z,36.60
2022-08-23T14:35:16.747Z,36.60
2022-08-23T14:40:30.384Z,36.60
2022-08-23T14:42:57.349Z,36.60
2022-08-23T14:45:24.486Z,36.60
2022-08-23T14:47:51.484Z,36.50
2022-08-23T14:50:18.194Z,36.50
2022-08-23T14:52:46.374Z,36.50
2022-08-23T14:55:14.768Z,36.40
2022-08-23T14:57:41.981Z,36.40
2022-08-23T15:00:13.916Z,36.30
2022-08-23T15:02:44.389Z,36.30
2022-08-23T15:05:12.656Z,36.20
2022-08-23T15:07:39.526Z,36.20
2022-08-23T15:10:07.060Z,36.10
2022-08-23T15:15:21.788Z,36.10
2022-08-23T15:17:52.489Z,35.90
2022-08-23T15:20:21.667Z,35.90
2022-08-23T15:22:55.456Z,35.90
2022-08-23T15:25:23.363Z,35.80
2022-08-23T15:27:51.180Z,35.80
2022-08-23T15:30:18.853Z,35.90
2022-08-23T15:32:52.541Z,35.80
2022-08-23T15:35:23.452Z,35.80
2022-08-23T15:37:50.135Z,35.80
2022-08-23T15:40:17.020Z,35.90
2022-08-23T15:42:43.883Z,35.90
2022-08-23T15:45:11.252Z,35.80
2022-08-23T15:54:13.498Z,35.80
2022-08-23T15:56:44.009Z,35.60
2022-08-23T15:59:15.357Z,35.60
2022-08-23T16:01:42.490Z,35.60
2022-08-23T16:04:09.754Z,35.60
2022-08-23T16:06:37.167Z,35.60
2022-08-23T16:09:05.992Z,35.60
2022-08-23T16:11:32.899Z,35.50
2022-08-23T16:13:59.658Z,35.50
2022-08-23T16:16:28.599Z,35.50
2022-08-23T16:18:55.415Z,35.40
2022-08-23T16:21:25.104Z,35.40
2022-08-23T16:23:52.088Z,35.40
2022-08-23T16:26:22.342Z,35.40
2022-08-23T16:28:56.988Z,35.40
2022-08-23T16:31:38.829Z,35.30
2022-08-23T16:34:08.466Z,35.20
2022-08-23T16:36:35.261Z,35.20
2022-08-23T16:39:01.945Z,35.20
2022-08-23T16:41:28.619Z,35.10
2022-08-23T16:43:55.353Z,35.10
2022-08-23T16:46:22.850Z,35.00
2022-08-23T16:48:49.792Z,35.00
2022-08-23T16:51:17.842Z,34.80
2022-08-23T16:53:44.844Z,34.90
2022-08-23T16:56:24.742Z,34.80
2022-08-23T16:58:51.637Z,34.80
2022-08-23T17:01:21.335Z,34.70
2022-08-23T17:03:48.367Z,34.70
2022-08-23T17:06:15.400Z,34.60
2022-08-23T17:08:42.182Z,34.50
2022-08-23T17:11:13.129Z,34.50
2022-08-23T17:13:40.523Z,34.40
2022-08-23T17:16:08.282Z,34.40
2022-08-23T17:18:35.991Z,34.30
2022-08-23T17:21:04.296Z,34.30
2022-08-23T17:23:30.990Z,34.30
2022-08-23T17:25:59.263Z,34.20
2022-08-23T17:28:26.175Z,34.10
2022-08-23T17:30:53.108Z,34.10
2022-08-23T17:33:19.854Z,34.00
2022-08-23T17:35:46.550Z,34.00
2022-08-23T17:38:21.359Z,33.90
2022-08-23T17:40:48.482Z,33.90
2022-08-23T17:43:15.106Z,33.80
2022-08-23T17:45:46.985Z,33.80
2022-08-23T17:48:14.699Z,33.70
2022-08-23T17:50:43.529Z,33.70
2022-08-23T17:53:11.370Z,33.70
2022-08-23T17:55:39.349Z,33.60
2022-08-23T17:58:07.658Z,33.60
2022-08-23T18:00:36.669Z,33.50
2022-08-23T18:03:04.408Z,33.50
2022-08-23T18:05:33.255Z,33.40
2022-08-23T18:08:00.839Z,33.40
2022-08-23T18:10:29.763Z,33.30
2022-08-23T18:12:57.253Z,33.20
2022-08-23T18:15:24.761Z,33.20
2022-08-23T18:17:53.954Z,33.10
2022-08-23T18:20:26.597Z,33.10
2022-08-23T18:22:54.984Z,33.00
2022-08-23T18:25:21.682Z,33.00
2022-08-23T18:28:07.006Z,32.90
2022-08-23T18:30:34.702Z,32.90
2022-08-23T18:33:02.353Z,32.80
2022-08-23T18:35:30.618Z,32.70
2022-08-23T18:38:01.264Z,32.70
2022-08-23T18:40:29.365Z,32.70
2022-08-23T18:42:56.878Z,32.60
2022-08-23T18:45:24.095Z,32.60
2022-08-23T18:47:50.789Z,32.50
2022-08-23T18:50:17.871Z,32.40
2022-08-23T18:52:44.562Z,32.40
2022-08-23T18:55:11.580Z,32.30
2022-08-23T18:57:38.972Z,32.20
2022-08-23T19:00:06.600Z,32.20
2022-08-23T19:02:33.987Z,32.10
2022-08-23T19:05:03.013Z,32.00
2022-08-23T19:07:29.749Z,32.00
2022-08-23T19:09:56.501Z,31.90
2022-08-23T19:12:23.192Z,31.80
2022-08-23T19:14:49.872Z,31.80
2022-08-23T19:17:16.625Z,31.70
2022-08-23T19:19:43.276Z,31.60
2022-08-23T19:22:10.054Z,31.60
2022-08-23T19:24:36.721Z,31.50
2022-08-23T19:27:03.523Z,31.40
2022-08-23T19:29:31.732Z,31.40
2022-08-23T19:31:58.492Z,31.30
2022-08-23T19:34:25.299Z,31.20
2022-08-23T19:37:00.650Z,31.20
2022-08-23T19:39:28.826Z,31.10
2022-08-23T19:41:55.501Z,31.10
2022-08-23T19:44:22.369Z,31.00
2022-08-23T19:46:49.275Z,31.00
2022-08-23T19:49:16.257Z,30.90
2022-08-23T19:51:43.569Z,30.80
2022-08-23T19:54:12.319Z,30.70
2022-08-23T19:56:48.360Z,30.70
2022-08-23T19:59:19.523Z,30.60
2022-08-23T20:01:47.389Z,30.50
2022-08-23T20:04:14.046Z,30.40
2022-08-23T20:06:40.843Z,30.40
2022-08-23T20:09:08.362Z,30.40
2022-08-23T20:11:35.598Z,30.40
2022-08-23T20:14:04.816Z,30.30
2022-08-23T20:16:32.730Z,30.20
2022-08-23T20:19:00.198Z,30.10
2022-08-23T20:21:27.148Z,30.10
2022-08-23T20:24:04.286Z,30.00
2022-08-23T20:26:40.688Z,30.00
2022-08-23T20:29:10.261Z,29.90
2022-08-23T20:31:39.969Z,29.80
2022-08-23T20:34:08.829Z,29.70
2022-08-23T20:36:36.010Z,29.70
2022-08-23T20:39:04.070Z,29.60
2022-08-23T20:41:34.071Z,29.50
2022-08-23T20:44:02.119Z,29.50
2022-08-23T20:46:29.317Z,29.40
2022-08-23T20:48:58.919Z,29.30
2022-08-23T20:51:27.375Z,29.30
2022-08-23T20:53:54.908Z,29.20
2022-08-23T20:56:23.441Z,29.10
2022-08-23T20:58:50.808Z,29.00
2022-08-23T21:01:18.143Z,29.00
2022-08-23T21:03:44.849Z,28.90
2022-08-23T21:06:20.097Z,28.90
2022-08-23T21:08:53.466Z,28.80
2022-08-23T21:11:21.931Z,28.80
2022-08-23T21:13:48.866Z,28.70
2022-08-23T21:16:16.652Z,28.70
2022-08-23T21:18:44.025Z,28.50
2022-08-23T21:21:11.305Z,28.40
2022-08-23T21:23:38.850Z,28.40
2022-08-23T21:26:06.487Z,28.30
2022-08-23T21:28:33.458Z,28.20
2022-08-23T21:31:14.449Z,28.20
2022-08-23T21:33:42.046Z,28.10
2022-08-23T21:36:10.060Z,28.10
2022-08-23T21:38:37.395Z,28.00
2022-08-23T21:41:07.882Z,27.90
2022-08-23T21:43:37.197Z,28.00
2022-08-23T21:46:05.462Z,27.80
2022-08-23T21:48:32.269Z,27.80
2022-08-23T21:51:00.094Z,27.70
2022-08-23T21:53:26.951Z,27.70
2022-08-23T21:55:53.606Z,27.60
2022-08-23T21:58:20.713Z,27.60
2022-08-23T22:00:47.547Z,27.50
2022-08-23T22:03:14.390Z,27.40
2022-08-23T22:05:45.606Z,27.40
2022-08-23T22:08:14.304Z,27.40
2022-08-23T22:10:56.663Z,27.20
2022-08-23T22:13:28.531Z,27.30
2022-08-23T22:15:55.321Z,27.20
2022-08-23T22:18:22.304Z,27.50
2022-08-23T22:20:49.340Z,27.10
2022-08-23T22:23:16.268Z,27.00
2022-08-23T22:25:42.962Z,27.00
2022-08-23T22:28:09.744Z,27.00
2022-08-23T22:30:36.502Z,26.90
2022-08-23T22:33:03.364Z,26.90
2022-08-23T22:35:34.323Z,26.90
2022-08-23T22:38:13.826Z,26.90
2022-08-23T22:40:48.294Z,26.80
2022-08-23T22:43:15.488Z,26.70
2022-08-23T22:45:57.668Z,26.70
2022-08-23T22:48:25.464Z,26.70
2022-08-23T22:51:10.516Z,26.60
2022-08-23T22:53:39.865Z,26.60
2022-08-23T22:56:07.880Z,26.50
2022-08-23T22:58:34.775Z,26.50
2022-08-23T23:01:03.680Z,26.40
2022-08-23T23:03:34.171Z,26.40
2022-08-23T23:06:01.459Z,26.40
2022-08-23T23:08:28.231Z,26.30
2022-08-23T23:11:00.014Z,26.30
2022-08-23T23:13:29.302Z,26.20
2022-08-23T23:15:56.937Z,26.20
2022-08-23T23:18:25.392Z,26.70
2022-08-23T23:20:52.491Z,26.10
2022-08-23T23:23:21.630Z,26.10
2022-08-23T23:25:49.707Z,26.10
2022-08-23T23:28:17.780Z,26.00
2022-08-23T23:30:46.980Z,25.90
2022-08-23T23:33:14.036Z,25.90
2022-08-23T23:35:41.708Z,25.90
2022-08-23T23:38:09.342Z,25.80
2022-08-23T23:40:37.116Z,25.90
2022-08-23T23:43:04.082Z,26.00
2022-08-23T23:45:30.819Z,25.70
2022-08-23T23:47:57.901Z,25.70
2022-08-23T23:50:25.368Z,25.70
2022-08-23T23:52:52.060Z,25.70
2022-08-23T23:55:20.591Z,25.60
2022-08-23T23:57:47.486Z,25.60
